createdAt,value
2022-09-20T00:01:16.147Z,99000.84
2022-09-20T00:03:48.327Z,99001.81
2022-09-20T00:06:18.366Z,98999.19
2022-09-20T00:08:45.904Z,99000.03
2022-09-20T00:11:21.549Z,99002.69
2022-09-20T00:13:50.364Z,98993.84
2022-09-20T00:16:39.581Z,98991.25
2022-09-20T00:19:07.622Z,98988.66
2022-09-20T00:21:36.334Z,98980.03
2022-09-20T00:24:03.561Z,98985.41
2022-09-20T00:26:30.337Z,98992.34
2022-09-20T00:28:58.494Z,98993.22
2022-09-20T00:31:25.284Z,98995.94
2022-09-20T00:34:13.850Z,98990.66
2022-09-20T00:36:40.653Z,98992.41
2022-09-20T00:39:07.448Z,98998.53
2022-09-20T00:41:34.233Z,99001.22
2022-09-20T00:44:01.815Z,98994.34
2022-09-20T00:46:44.631Z,98999.81
2022-09-20T00:49:18.549Z,99011.41
2022-09-20T00:51:49.625Z,99008.78
2022-09-20T00:54:20.825Z,99004.41
2022-09-20T00:56:48.762Z,99018.63
2022-09-20T00:59:22.982Z,99019.47
2022-09-20T01:01:53.799Z,99011.53
2022-09-20T01:04:23.611Z,99008.81
2022-09-20T01:06:54.002Z,99008.94
2022-09-20T01:09:20.746Z,99007.94
2022-09-20T01:11:48.433Z,99006.13
2022-09-20T01:14:17.070Z,99005.22
2022-09-20T01:16:43.932Z,99013.94
2022-09-20T01:19:22.196Z,99013.88
2022-09-20T01:21:48.928Z,99009.47
2022-09-20T01:24:18.558Z,99012.19
2022-09-20T01:27:03.610Z,99005.09
2022-09-20T01:30:06.963Z,99007.75
2022-09-20T01:32:51.615Z,99009.66
2022-09-20T01:35:21.318Z,98999.88
2022-09-20T01:38:12.741Z,98999.09
2022-09-20T01:41:38.100Z,98990.34
2022-09-20T01:44:11.084Z,98994.75
2022-09-20T01:46:38.196Z,98993.00
2022-09-20T01:49:10.623Z,98993.00
2022-09-20T01:52:03.333Z,98988.69
2022-09-20T01:55:07.428Z,98987.00
2022-09-20T01:57:59.560Z,98979.81
2022-09-20T02:00:39.139Z,98980.66
2022-09-20T02:03:49.104Z,98986.81
2022-09-20T02:06:43.534Z,98985.13
2022-09-20T02:09:22.420Z,98989.72
2022-09-20T02:12:19.523Z,98998.69
2022-09-20T02:14:55.219Z,99005.81
2022-09-20T02:17:33.851Z,99014.69
2022-09-20T02:20:09.710Z,99024.34
2022-09-20T02:23:16.202Z,99018.16
2022-09-20T02:26:19.985Z,99016.56
2022-09-20T02:29:12.825Z,99019.25
2022-09-20T02:31:45.715Z,99015.72
2022-09-20T02:34:50.972Z,99020.03
2022-09-20T02:37:20.674Z,99012.97
2022-09-20T02:39:47.522Z,99014.63
2022-09-20T02:42:49.715Z,99020.63
2022-09-20T02:45:21.599Z,99012.53
2022-09-20T02:47:48.478Z,99014.34
2022-09-20T02:50:30.147Z,99012.63
2022-09-20T02:53:35.400Z,99004.53
2022-09-20T02:56:21.052Z,99005.34
2022-09-20T02:59:26.785Z,99008.91
2022-09-20T03:02:40.105Z,99010.63
2022-09-20T03:05:27.580Z,99017.53
2022-09-20T03:08:18.469Z,99019.19
2022-09-20T03:10:49.399Z,99019.97
2022-09-20T03:13:31.217Z,99015.53
2022-09-20T03:16:05.447Z,99013.72
2022-09-20T03:18:47.182Z,99015.47
2022-09-20T03:21:32.311Z,99022.44
2022-09-20T03:24:29.097Z,99022.38
2022-09-20T03:27:35.290Z,99017.88
2022-09-20T03:30:34.545Z,99018.78
2022-09-20T03:33:13.914Z,99023.94
2022-09-20T03:36:17.270Z,99012.47
2022-09-20T03:38:59.016Z,99009.75
2022-09-20T03:42:01.109Z,99002.66
2022-09-20T03:44:43.763Z,99003.63
2022-09-20T03:47:19.215Z,99000.97
2022-09-20T03:50:24.454Z,98996.41
2022-09-20T03:53:01.930Z,98997.25
2022-09-20T03:55:44.025Z,99003.41
2022-09-20T03:58:22.522Z,99006.81
2022-09-20T04:01:16.248Z,99006.88
2022-09-20T04:04:18.613Z,99017.66
2022-09-20T04:07:09.905Z,99021.28
2022-09-20T04:09:47.659Z,99030.25
2022-09-20T04:12:39.267Z,99021.34
2022-09-20T04:15:22.236Z,99013.41
2022-09-20T04:18:07.723Z,99018.56
2022-09-20T04:20:43.794Z,99011.44
2022-09-20T04:23:33.591Z,99018.63
2022-09-20T04:26:02.223Z,99016.84
2022-09-20T04:28:39.574Z,99023.88
2022-09-20T04:31:23.148Z,99029.13
2022-09-20T04:33:53.437Z,99019.53
2022-09-20T04:36:34.166Z,99024.75
2022-09-20T04:39:07.191Z,99022.94
2022-09-20T04:42:08.547Z,99027.28
2022-09-20T04:44:55.796Z,99028.91
2022-09-20T04:47:42.365Z,99027.94
2022-09-20T04:50:19.304Z,99032.28
2022-09-20T04:53:21.628Z,99033.19
2022-09-20T04:56:14.503Z,99035.03
2022-09-20T04:58:49.034Z,99033.31
2022-09-20T05:01:42.629Z,99044.81
2022-09-20T05:04:57.699Z,99060.72
2022-09-20T05:08:02.141Z,99059.81
2022-09-20T05:10:34.909Z,99052.63
2022-09-20T05:13:28.057Z,99049.06
2022-09-20T05:16:00.993Z,99051.06
2022-09-20T05:18:47.908Z,99056.38
2022-09-20T05:21:20.496Z,99049.31
2022-09-20T05:24:24.314Z,99058.03
2022-09-20T05:27:09.313Z,99056.03
2022-09-20T05:30:28.323Z,99052.28
2022-09-20T05:33:15.149Z,99053.03
2022-09-20T05:36:03.907Z,99063.47
2022-09-20T05:38:47.562Z,99060.81
2022-09-20T05:41:20.602Z,99067.13
2022-09-20T05:44:14.098Z,99059.06
2022-09-20T05:47:00.148Z,99067.94
2022-09-20T05:49:55.561Z,99061.06
2022-09-20T05:52:46.851Z,99052.22
2022-09-20T05:55:19.763Z,99059.22
2022-09-20T05:57:56.375Z,99060.78
2022-09-20T06:00:29.010Z,99060.63
2022-09-20T06:03:17.623Z,99053.22
2022-09-20T06:05:59.571Z,99056.94
2022-09-20T06:09:21.800Z,99060.03
2022-09-20T06:12:14.346Z,99065.19
2022-09-20T06:15:00.030Z,99074.94
2022-09-20T06:17:47.593Z,99067.91
2022-09-20T06:20:56.435Z,99074.16
2022-09-20T06:23:23.431Z,99081.28
2022-09-20T06:25:57.618Z,99069.97
2022-09-20T06:28:29.021Z,99064.97
2022-09-20T06:30:57.260Z,99069.84
2022-09-20T06:33:28.883Z,99072.44
2022-09-20T06:36:31.853Z,99070.78
2022-09-20T06:40:19.388Z,99066.31
2022-09-20T06:42:46.061Z,99058.50
2022-09-20T06:45:12.822Z,99069.44
2022-09-20T06:47:40.343Z,99076.53
2022-09-20T06:50:07.437Z,99069.28
2022-09-20T06:52:35.602Z,99074.78
2022-09-20T06:55:07.330Z,99079.22
2022-09-20T06:57:37.834Z,99088.25
2022-09-20T07:00:11.231Z,99089.22
2022-09-20T07:02:38.134Z,99096.06
2022-09-20T07:05:07.439Z,99091.69
2022-09-20T07:07:34.087Z,99096.13
2022-09-20T07:10:00.799Z,99094.53
2022-09-20T07:12:33.415Z,99097.91
2022-09-20T07:15:00.161Z,99095.94
2022-09-20T07:17:26.855Z,99099.66
2022-09-20T07:19:53.536Z,99101.44
2022-09-20T07:22:20.289Z,99094.94
2022-09-20T07:24:48.190Z,99092.97
2022-09-20T07:27:14.961Z,99089.31
2022-09-20T07:29:41.729Z,99095.19
2022-09-20T07:32:08.526Z,99100.22
2022-09-20T07:37:19.394Z,99098.44
2022-09-20T07:39:46.295Z,99099.81
2022-09-20T07:42:13.303Z,99102.06
2022-09-20T07:44:42.265Z,99092.28
2022-09-20T07:47:11.114Z,99098.25
2022-09-20T07:49:37.783Z,99102.88
2022-09-20T07:52:04.838Z,99099.47
2022-09-20T07:54:31.676Z,99103.66
2022-09-20T07:56:58.424Z,99102.19
2022-09-20T07:59:25.932Z,99105.66
2022-09-20T08:01:52.666Z,99113.53
2022-09-20T08:04:20.749Z,99101.75
2022-09-20T08:06:47.450Z,99101.34
2022-09-20T08:09:14.433Z,99101.75
2022-09-20T08:11:42.769Z,99113.63
2022-09-20T08:14:16.223Z,99104.75
2022-09-20T08:16:48.255Z,99109.06
2022-09-20T08:19:21.077Z,99118.63
2022-09-20T08:21:48.741Z,99120.22
2022-09-20T08:24:17.144Z,99110.41
2022-09-20T08:26:44.629Z,99111.41
2022-09-20T08:29:11.706Z,99110.25
2022-09-20T08:31:42.132Z,99122.78
2022-09-20T08:34:11.625Z,99120.25
2022-09-20T08:36:46.648Z,99105.28
2022-09-20T08:42:04.418Z,99082.19
2022-09-20T08:44:45.255Z,99081.75
2022-09-20T08:47:22.111Z,99094.78
2022-09-20T08:49:56.893Z,99089.38
2022-09-20T08:52:37.022Z,99075.72
2022-09-20T08:55:22.994Z,99055.66
2022-09-20T08:57:52.966Z,99057.78
2022-09-20T09:00:26.034Z,99046.03
2022-09-20T09:02:57.159Z,99055.97
2022-09-20T09:05:54.164Z,99051.03
2022-09-20T09:08:26.147Z,99063.22
2022-09-20T09:10:57.467Z,99080.53
2022-09-20T09:13:27.398Z,99083.75
2022-09-20T09:16:11.392Z,99089.72
2022-09-20T09:18:42.044Z,99091.94
2022-09-20T09:21:16.833Z,99098.03
2022-09-20T09:24:11.116Z,99094.06
2022-09-20T09:26:43.365Z,99104.88
2022-09-20T09:29:22.044Z,99107.25
2022-09-20T09:31:51.733Z,99111.91
2022-09-20T09:34:30.569Z,99103.38
2022-09-20T09:36:58.362Z,99105.31
2022-09-20T09:39:31.534Z,99103.34
2022-09-20T09:42:02.302Z,99109.81
2022-09-20T09:44:33.990Z,99104.81
2022-09-20T09:47:01.307Z,99109.16
2022-09-20T09:49:34.125Z,99113.34
2022-09-20T09:52:26.770Z,99111.97
2022-09-20T09:55:02.183Z,99114.84
2022-09-20T09:57:51.956Z,99115.63
2022-09-20T10:00:22.670Z,99113.06
2022-09-20T10:02:58.519Z,99110.38
2022-09-20T10:05:32.979Z,99089.38
2022-09-20T10:08:20.921Z,99093.03
2022-09-20T10:10:47.539Z,99091.28
2022-09-20T10:13:33.485Z,99092.44
2022-09-20T10:16:07.213Z,99090.25
2022-09-20T10:19:01.760Z,99077.78
2022-09-20T10:21:50.858Z,99066.47
2022-09-20T10:24:38.647Z,99061.38
2022-09-20T10:27:49.157Z,99063.03
2022-09-20T10:30:20.929Z,99058.56
2022-09-20T10:33:06.461Z,99074.84
2022-09-20T10:35:57.330Z,99070.19
2022-09-20T10:38:31.965Z,99072.34
2022-09-20T10:41:30.804Z,99071.16
2022-09-20T10:44:20.694Z,99069.44
2022-09-20T10:47:00.178Z,99075.56
2022-09-20T10:49:53.598Z,99066.94
2022-09-20T10:52:57.097Z,99073.41
2022-09-20T10:55:25.453Z,99059.63
2022-09-20T10:57:55.603Z,99052.13
2022-09-20T11:00:42.160Z,99061.28
2022-09-20T11:03:42.122Z,99063.59
2022-09-20T11:06:27.632Z,99066.88
2022-09-20T11:08:59.435Z,99071.09
2022-09-20T11:11:32.865Z,99066.13
2022-09-20T11:14:10.665Z,99077.59
2022-09-20T11:16:44.692Z,99073.22
2022-09-20T11:19:11.372Z,99081.94
2022-09-20T11:21:44.518Z,99093.88
2022-09-20T11:24:27.920Z,99085.38
2022-09-20T11:27:00.783Z,99091.31
2022-09-20T11:29:32.364Z,99096.69
2022-09-20T11:32:13.759Z,99090.78
2022-09-20T11:34:51.811Z,99092.38
2022-09-20T11:37:19.329Z,99094.59
2022-09-20T11:39:55.680Z,99093.28
2022-09-20T11:42:36.706Z,99097.13
2022-09-20T11:45:04.161Z,99099.06
2022-09-20T11:47:53.209Z,99101.81
2022-09-20T11:50:45.187Z,99091.22
2022-09-20T11:53:33.246Z,99093.34
2022-09-20T11:56:05.589Z,99099.16
2022-09-20T11:58:48.180Z,99101.03
2022-09-20T12:01:28.325Z,99099.59
2022-09-20T12:04:32.985Z,99098.88
2022-09-20T12:07:11.489Z,99102.81
2022-09-20T12:09:45.151Z,99112.28
2022-09-20T12:12:16.812Z,99111.56
2022-09-20T12:14:54.908Z,99124.38
2022-09-20T12:17:46.484Z,99128.34
2022-09-20T12:20:32.626Z,99135.47
2022-09-20T12:23:37.117Z,99131.13
2022-09-20T12:26:06.893Z,99134.75
2022-09-20T12:28:39.600Z,99137.09
2022-09-20T12:31:18.657Z,99132.66
2022-09-20T12:33:56.408Z,99151.75
2022-09-20T12:36:24.034Z,99151.88
2022-09-20T12:39:30.132Z,99144.78
2022-09-20T12:42:09.399Z,99140.44
2022-09-20T12:44:51.357Z,99137.94
2022-09-20T12:47:20.490Z,99131.19
2022-09-20T12:50:05.850Z,99124.63
2022-09-20T12:52:50.857Z,99109.59
2022-09-20T12:55:27.047Z,99094.69
2022-09-20T12:58:06.523Z,99088.50
2022-09-20T13:01:00.980Z,99087.66
2022-09-20T13:03:44.332Z,99099.25
2022-09-20T13:06:14.890Z,99082.75
2022-09-20T13:08:50.076Z,99085.34
2022-09-20T13:11:20.211Z,99086.44
2022-09-20T13:13:51.805Z,99077.09
2022-09-20T13:16:24.015Z,99086.16
2022-09-20T13:19:00.065Z,99077.63
2022-09-20T13:21:27.884Z,99079.09
2022-09-20T13:23:55.322Z,99086.25
2022-09-20T13:26:30.088Z,99076.06
2022-09-20T13:28:59.263Z,99070.88
2022-09-20T13:31:32.821Z,99064.78
2022-09-20T13:34:14.058Z,99067.38
2022-09-20T13:36:41.629Z,99062.41
2022-09-20T13:39:08.794Z,99063.25
2022-09-20T13:41:36.365Z,99066.22
2022-09-20T13:44:03.993Z,99064.09
2022-09-20T13:46:33.607Z,99055.72
2022-09-20T13:49:12.821Z,99062.66
2022-09-20T13:51:39.642Z,99056.25
2022-09-20T13:54:32.827Z,99055.19
2022-09-20T13:57:03.453Z,99065.53
2022-09-20T13:59:40.334Z,99067.13
2022-09-20T14:02:19.433Z,99053.09
2022-09-20T14:04:46.651Z,99045.59
2022-09-20T14:07:15.021Z,99044.97
2022-09-20T14:09:41.910Z,99056.94
2022-09-20T14:12:12.193Z,99045.78
2022-09-20T14:14:39.993Z,99034.72
2022-09-20T14:17:09.620Z,99028.22
2022-09-20T14:19:41.141Z,99036.44
2022-09-20T14:22:22.476Z,99041.78
2022-09-20T14:25:13.872Z,99031.78
2022-09-20T14:27:40.761Z,99025.31
2022-09-20T14:30:31.712Z,99022.75
2022-09-20T14:32:59.117Z,99022.03
2022-09-20T14:35:27.015Z,99017.13
2022-09-20T14:38:01.488Z,99013.19
2022-09-20T14:40:31.826Z,99014.09
2022-09-20T14:43:06.188Z,99012.75
2022-09-20T14:45:35.306Z,99007.06
2022-09-20T14:48:10.363Z,99006.09
2022-09-20T14:50:44.214Z,99000.84
2022-09-20T14:53:10.873Z,98992.88
2022-09-20T14:55:54.810Z,99002.19
2022-09-20T14:58:21.507Z,98997.06
2022-09-20T15:01:15.559Z,98995.19
2022-09-20T15:03:42.777Z,99000.84
2022-09-20T15:06:13.242Z,99012.94
2022-09-20T15:08:45.441Z,99020.34
2022-09-20T15:11:18.064Z,99016.16
2022-09-20T15:13:45.483Z,99022.44
2022-09-20T15:16:14.474Z,99015.28
2022-09-20T15:18:43.048Z,99009.81
2022-09-20T15:21:11.257Z,99024.97
2022-09-20T15:23:39.464Z,99028.97
2022-09-20T15:26:07.626Z,99023.03
2022-09-20T15:28:34.978Z,99030.84
2022-09-20T15:31:02.227Z,99026.47
2022-09-20T15:33:30.818Z,99031.69
2022-09-20T15:35:57.873Z,99041.75
2022-09-20T15:38:26.922Z,99032.13
2022-09-20T15:40:54.147Z,99026.59
2022-09-20T15:43:24.141Z,99028.78
2022-09-20T15:45:55.516Z,99034.59
2022-09-20T15:48:24.889Z,99036.84
2022-09-20T15:50:58.496Z,99031.97
2022-09-20T15:53:25.314Z,99025.31
2022-09-20T15:55:52.199Z,99033.03
2022-09-20T15:58:18.839Z,99040.50
2022-09-20T16:00:45.875Z,99040.31
2022-09-20T16:03:12.935Z,99032.06
2022-09-20T16:05:39.640Z,99041.66
2022-09-20T16:08:06.396Z,99040.00
2022-09-20T16:10:33.109Z,99034.66
2022-09-20T16:12:59.826Z,99042.25
2022-09-20T16:15:26.555Z,99046.56
2022-09-20T16:18:11.695Z,99048.69
2022-09-20T16:20:38.448Z,99042.53
2022-09-20T16:23:05.361Z,99044.66
2022-09-20T16:25:32.312Z,99055.66
2022-09-20T16:27:59.053Z,99051.81
2022-09-20T16:30:26.995Z,99050.69
2022-09-20T16:32:53.728Z,99056.78
2022-09-20T16:35:20.438Z,99060.34
2022-09-20T16:37:48.193Z,99058.41
2022-09-20T16:40:15.145Z,99056.19
2022-09-20T16:42:52.095Z,99063.34
2022-09-20T16:45:19.302Z,99055.19
2022-09-20T16:47:46.645Z,99070.03
2022-09-20T16:50:13.446Z,99066.91
2022-09-20T16:52:40.198Z,99066.91
2022-09-20T16:55:07.800Z,99062.53
2022-09-20T16:57:36.746Z,99073.19
2022-09-20T17:00:04.088Z,99066.22
2022-09-20T17:02:30.760Z,99066.91
2022-09-20T17:04:57.459Z,99066.03
2022-09-20T17:07:24.258Z,99068.00
2022-09-20T17:09:51.064Z,99070.84
2022-09-20T17:12:21.836Z,99070.00
2022-09-20T17:14:48.582Z,99074.66
2022-09-20T17:17:15.300Z,99076.63
2022-09-20T17:19:42.429Z,99073.91
2022-09-20T17:22:09.171Z,99076.94
2022-09-20T17:24:35.909Z,99080.75
2022-09-20T17:27:04.073Z,99086.56
2022-09-20T17:29:30.837Z,99089.75
2022-09-20T17:31:59.847Z,99098.03
2022-09-20T17:34:27.990Z,99099.91
2022-09-20T17:36:55.211Z,99107.25
2022-09-20T17:39:22.153Z,99105.44
2022-09-20T17:41:50.232Z,99106.66
2022-09-20T17:44:17.182Z,99113.94
2022-09-20T17:46:45.996Z,99112.22
2022-09-20T17:49:16.394Z,99128.31
2022-09-20T17:51:49.061Z,99124.06
2022-09-20T17:54:16.307Z,99134.84
2022-09-20T17:56:45.749Z,99144.88
2022-09-20T17:59:14.458Z,99139.47
2022-09-20T18:01:41.936Z,99133.25
2022-09-20T18:04:09.537Z,99132.66
2022-09-20T18:06:50.623Z,99136.47
2022-09-20T18:09:20.558Z,99136.53
2022-09-20T18:11:49.820Z,99146.44
2022-09-20T18:14:27.959Z,99148.22
2022-09-20T18:16:57.971Z,99155.41
2022-09-20T18:19:25.042Z,99152.97
2022-09-20T18:21:51.812Z,99153.09
2022-09-20T18:24:18.690Z,99162.94
2022-09-20T18:26:45.463Z,99155.00
2022-09-20T18:29:14.413Z,99158.66
2022-09-20T18:31:44.586Z,99163.44
2022-09-20T18:34:18.201Z,99166.28
2022-09-20T18:36:54.090Z,99171.88
2022-09-20T18:39:25.139Z,99171.19
2022-09-20T18:41:53.119Z,99173.97
2022-09-20T18:44:21.673Z,99168.06
2022-09-20T18:46:49.402Z,99167.22
2022-09-20T18:49:16.979Z,99176.19
2022-09-20T18:51:45.443Z,99170.94
2022-09-20T18:54:12.904Z,99177.19
2022-09-20T18:56:44.394Z,99191.47
2022-09-20T18:59:25.352Z,99182.72
2022-09-20T19:01:58.748Z,99182.00
2022-09-20T19:04:37.778Z,99185.56
2022-09-20T19:07:13.680Z,99183.97
2022-09-20T19:09:49.619Z,99183.31
2022-09-20T19:12:23.299Z,99196.91
2022-09-20T19:15:04.934Z,99195.31
2022-09-20T19:18:04.411Z,99202.44
2022-09-20T19:20:41.294Z,99204.19
2022-09-20T19:23:49.692Z,99197.00
2022-09-20T19:26:19.414Z,99206.06
2022-09-20T19:28:47.314Z,99201.72
2022-09-20T19:31:22.344Z,99203.50
2022-09-20T19:33:49.441Z,99202.53
2022-09-20T19:36:17.281Z,99205.28
2022-09-20T19:39:07.787Z,99200.06
2022-09-20T19:41:44.662Z,99205.38
2022-09-20T19:44:30.527Z,99204.56
2022-09-20T19:47:10.316Z,99203.06
2022-09-20T19:50:03.444Z,99205.75
2022-09-20T19:52:30.969Z,99204.06
2022-09-20T19:54:57.848Z,99192.66
2022-09-20T19:57:46.866Z,99198.81
2022-09-20T20:00:21.121Z,99199.75
2022-09-20T20:02:48.441Z,99208.00
2022-09-20T20:05:20.379Z,99213.50
2022-09-20T20:08:16.277Z,99211.81
2022-09-20T20:11:09.029Z,99214.66
2022-09-20T20:14:03.602Z,99210.47
2022-09-20T20:16:45.546Z,99213.22
2022-09-20T20:19:30.572Z,99215.09
2022-09-20T20:22:29.175Z,99212.59
2022-09-20T20:24:56.673Z,99216.31
2022-09-20T20:27:28.155Z,99220.06
2022-09-20T20:29:55.617Z,99223.69
2022-09-20T20:32:22.848Z,99222.16
2022-09-20T20:34:49.774Z,99219.53
2022-09-20T20:37:18.076Z,99228.44
2022-09-20T20:39:45.082Z,99220.63
2022-09-20T20:42:12.811Z,99231.47
2022-09-20T20:44:40.070Z,99224.47
2022-09-20T20:47:07.227Z,99225.47
2022-09-20T20:49:34.636Z,99231.66
2022-09-20T20:52:04.625Z,99227.06
2022-09-20T20:54:32.348Z,99229.56
2022-09-20T20:56:59.465Z,99232.28
2022-09-20T20:59:26.326Z,99236.81
2022-09-20T21:01:53.326Z,99237.91
2022-09-20T21:04:21.545Z,99248.75
2022-09-20T21:06:48.334Z,99243.59
2022-09-20T21:09:15.127Z,99246.53
2022-09-20T21:11:44.793Z,99242.16
2022-09-20T21:14:12.755Z,99247.75
2022-09-20T21:16:42.973Z,99245.09
2022-09-20T21:19:14.583Z,99258.44
2022-09-20T21:21:43.442Z,99256.63
2022-09-20T21:24:12.749Z,99252.13
2022-09-20T21:26:40.426Z,99254.72
2022-09-20T21:29:10.876Z,99256.44
2022-09-20T21:31:45.151Z,99259.94
2022-09-20T21:34:15.364Z,99251.13
2022-09-20T21:36:42.763Z,99268.91
2022-09-20T21:39:09.557Z,99257.47
2022-09-20T21:41:37.967Z,99267.41
2022-09-20T21:44:06.089Z,99262.97
2022-09-20T21:46:40.559Z,99263.75
2022-09-20T21:49:10.063Z,99261.97
2022-09-20T21:51:38.098Z,99263.69
2022-09-20T21:54:05.924Z,99269.88
2022-09-20T21:56:35.065Z,99264.56
2022-09-20T21:59:04.054Z,99272.53
2022-09-20T22:01:34.535Z,99271.75
2022-09-20T22:04:06.440Z,99270.06
2022-09-20T22:06:36.504Z,99266.59
2022-09-20T22:09:09.031Z,99271.06
2022-09-20T22:11:39.145Z,99272.91
2022-09-20T22:14:07.764Z,99268.53
2022-09-20T22:16:37.812Z,99278.34
2022-09-20T22:19:06.907Z,99271.19
2022-09-20T22:21:36.781Z,99271.25
2022-09-20T22:24:05.954Z,99270.38
2022-09-20T22:26:38.572Z,99276.66
2022-09-20T22:29:06.475Z,99272.19
2022-09-20T22:31:35.900Z,99269.50
2022-09-20T22:34:05.526Z,99269.41
2022-09-20T22:36:35.190Z,99266.72
2022-09-20T22:39:03.550Z,99265.69
2022-09-20T22:41:30.371Z,99268.22
2022-09-20T22:43:57.109Z,99267.34
2022-09-20T22:46:26.596Z,99266.47
2022-09-20T22:48:53.629Z,99261.22
2022-09-20T22:51:23.761Z,99264.88
2022-09-20T22:53:52.169Z,99265.78
2022-09-20T22:56:29.230Z,99266.00
2022-09-20T22:59:00.010Z,99267.00
2022-09-20T23:01:29.763Z,99274.25
2022-09-20T23:03:59.182Z,99276.13
2022-09-20T23:06:29.082Z,99270.84
2022-09-20T23:08:58.038Z,99263.88
2022-09-20T23:11:25.868Z,99273.69
2022-09-20T23:13:57.958Z,99273.75
2022-09-20T23:16:30.154Z,99267.56
2022-09-20T23:18:58.630Z,99269.28
2022-09-20T23:21:26.092Z,99267.69
2022-09-20T23:23:58.266Z,99269.38
2022-09-20T23:26:26.263Z,99266.78
2022-09-20T23:28:58.137Z,99267.81
2022-09-20T23:31:25.811Z,99264.28
2022-09-20T23:33:57.881Z,99259.88
2022-09-20T23:36:26.969Z,99263.41
2022-09-20T23:38:54.131Z,99267.00
2022-09-20T23:41:22.867Z,99272.34
2022-09-20T23:43:49.634Z,99272.34
2022-09-20T23:46:18.548Z,99268.84
2022-09-20T23:48:45.636Z,99268.06
2022-09-20T23:51:17.600Z,99269.84
2022-09-20T23:53:44.919Z,99266.31
2022-09-20T23:56:12.539Z,99260.13
2022-09-20T23:58:40.600Z,99262.81
